Plum Branch, South Carolina
Current Conditions -  °F | °C
As of 7:15 PM on Saturday 20 Dec 2014 (Local Time) from KHQU Reporting Station
Overcast Overcast  
Wind Chill: 50°   Ceiling: 200
Heat Index: 50°   Visibility: 1.5mi
Dew Point: 50°   Wind: 7mph
Humidity: 100%   Direction: 40°NE
Pressure: 30.24"   Gusts: NA
Location:  33.85°N, 82.26°W
Report Text: KHQU 210015Z AUTO 04006KT 1 1/2SM OVC002 10/10 A3024 RMK AO1 T01000100
Loading
Personal Weather Stations






























Interactive Weather Map New forecast layout! Learn more

10-Day Weather Forecast

Advertisements
Track Severe Weather on mobile